Time;durP1;ratioP1;P1;durP2;ratioP2;P2;SDS_P1;SDS_P2;PMS_P1;PMS_P2;Temp;Humidity;BMP_temperature;BMP_pressure;BME280_temperature;BME280_humidity;BME280_pressure;Samples;Min_cycle;Max_cycle;Signal;HPM_P1;HPM_P2
2022/08/20 00:04:49;;;;;;;7.90;5.93;;;;;;;;;;10394329;28;20750;-77
2022/08/20 00:09:50;;;;;;;5.90;5.30;;;;;;;;;;10398229;28;20224;-78
2022/08/20 00:14:51;;;;;;;6.13;5.20;;;;;;;;;;10406972;28;20320;-78
2022/08/20 00:19:52;;;;;;;5.77;5.13;;;;;;;;;;10401336;28;20303;-75
2022/08/20 00:24:53;;;;;;;6.33;5.07;;;;;;;;;;10416663;28;20722;-75
2022/08/20 00:29:54;;;;;;;7.33;5.30;;;;;;;;;;10410776;28;20213;-75
2022/08/20 00:34:55;;;;;;;6.37;4.97;;;;;;;;;;10404591;28;20311;-77
2022/08/20 00:39:57;;;;;;;7.70;5.07;;;;;;;;;;10403812;28;20225;-76
2022/08/20 00:44:58;;;;;;;7.27;5.50;;;;;;;;;;10407917;28;20220;-74
2022/08/20 00:49:59;;;;;;;5.70;5.20;;;;;;;;;;10410473;28;20220;-77
2022/08/20 00:55:04;;;;;;;6.33;5.57;;;;;;;;;;10400471;28;20220;-77
2022/08/20 01:00:10;;;;;;;5.73;5.23;;;;;;;;;;10396864;28;20931;-76
2022/08/20 01:05:11;;;;;;;6.20;5.40;;;;;;;;;;10382595;28;20587;-78
2022/08/20 01:10:13;;;;;;;6.27;5.20;;;;;;;;;;10400776;28;20284;-76
2022/08/20 01:15:16;;;;;;;5.87;4.80;;;;;;;;;;10409404;28;20284;-77
2022/08/20 01:20:21;;;;;;;6.40;5.10;;;;;;;;;;10399531;28;20185;-75
2022/08/20 01:25:27;;;;;;;7.40;5.53;;;;;;;;;;10406174;28;20216;-76
2022/08/20 01:30:29;;;;;;;5.03;4.53;;;;;;;;;;10393548;28;20224;-75
2022/08/20 01:35:34;;;;;;;7.40;6.60;;;;;;;;;;10412931;28;20764;-76
2022/08/20 01:40:47;;;;;;;13.83;12.33;;;;;;;;;;10401881;28;20219;-77
2022/08/20 01:45:48;;;;;;;8.43;5.83;;;;;;;;;;10396780;28;20771;-77
2022/08/20 01:51:10;;;;;;;7.47;5.70;;;;;;;;;;10394783;28;20289;-74
2022/08/20 01:56:13;;;;;;;7.00;6.20;;;;;;;;;;10393191;28;20213;-74
2022/08/20 02:01:40;;;;;;;6.13;5.60;;;;;;;;;;10405979;28;20220;-75
2022/08/20 02:06:43;;;;;;;6.73;5.47;;;;;;;;;;10405601;28;20738;-75
2022/08/20 02:11:45;;;;;;;7.17;5.17;;;;;;;;;;10395724;28;20229;-75
2022/08/20 02:16:46;;;;;;;6.90;5.80;;;;;;;;;;10398752;28;20278;-74
2022/08/20 02:21:50;;;;;;;7.53;5.90;;;;;;;;;;10404804;28;20316;-76
2022/08/20 02:26:51;;;;;;;7.50;4.80;;;;;;;;;;10397748;28;20287;-75
2022/08/20 02:31:53;;;;;;;8.10;5.20;;;;;;;;;;10402549;28;20225;-77
2022/08/20 02:36:55;;;;;;;5.67;4.20;;;;;;;;;;10400161;28;20223;-74
2022/08/20 02:41:56;;;;;;;5.97;4.60;;;;;;;;;;10396283;28;20231;-76
2022/08/20 02:46:57;;;;;;;6.77;4.43;;;;;;;;;;10390435;28;20236;-76
2022/08/20 02:51:58;;;;;;;5.30;4.70;;;;;;;;;;10402160;28;20243;-76
2022/08/20 02:57:03;;;;;;;4.77;4.37;;;;;;;;;;10396274;28;20224;-78
2022/08/20 03:02:04;;;;;;;4.97;4.40;;;;;;;;;;10399584;28;20228;-75
2022/08/20 03:07:05;;;;;;;5.43;3.90;;;;;;;;;;10395492;28;20235;-75
2022/08/20 03:12:09;;;;;;;6.03;4.13;;;;;;;;;;10396883;28;20303;-76
2022/08/20 03:17:10;;;;;;;4.43;3.90;;;;;;;;;;10387930;28;20234;-75
2022/08/20 03:22:11;;;;;;;5.00;4.50;;;;;;;;;;10397667;28;20927;-75
2022/08/20 03:27:12;;;;;;;6.40;4.30;;;;;;;;;;10396297;28;20739;-75
2022/08/20 03:32:13;;;;;;;5.63;4.00;;;;;;;;;;10397974;28;20228;-75
2022/08/20 03:37:14;;;;;;;6.83;3.80;;;;;;;;;;10415796;28;20226;-75
2022/08/20 03:42:15;;;;;;;3.87;3.57;;;;;;;;;;10403420;28;20774;-78
2022/08/20 03:47:16;;;;;;;4.60;4.20;;;;;;;;;;10405194;28;20225;-76
2022/08/20 03:52:18;;;;;;;4.30;3.90;;;;;;;;;;10399183;28;20672;-75
2022/08/20 03:57:19;;;;;;;4.50;4.10;;;;;;;;;;10404090;28;20316;-77
2022/08/20 04:02:20;;;;;;;4.57;4.17;;;;;;;;;;10399326;28;20311;-75
2022/08/20 04:07:26;;;;;;;4.30;3.90;;;;;;;;;;10402781;28;20637;-74
2022/08/20 04:12:30;;;;;;;7.27;3.87;;;;;;;;;;10416369;28;20223;-76
2022/08/20 04:17:32;;;;;;;4.87;3.67;;;;;;;;;;10408633;28;20229;-76
2022/08/20 04:22:33;;;;;;;4.20;3.80;;;;;;;;;;10395813;28;20228;-76
2022/08/20 04:27:36;;;;;;;4.90;4.33;;;;;;;;;;10409967;28;20229;-75
2022/08/20 04:32:38;;;;;;;5.80;4.13;;;;;;;;;;10399818;28;20220;-75
2022/08/20 04:37:39;;;;;;;4.27;3.87;;;;;;;;;;10395347;28;20326;-75
2022/08/20 04:42:40;;;;;;;5.60;3.73;;;;;;;;;;10404177;28;20307;-75
2022/08/20 04:47:41;;;;;;;4.10;3.70;;;;;;;;;;10405041;28;20681;-76
2022/08/20 04:52:42;;;;;;;5.87;3.80;;;;;;;;;;10405137;28;20788;-75
2022/08/20 04:57:43;;;;;;;5.83;3.97;;;;;;;;;;10394685;28;20232;-75
2022/08/20 05:02:48;;;;;;;4.67;4.23;;;;;;;;;;10399101;28;20730;-76
2022/08/20 05:07:48;;;;;;;5.70;3.53;;;;;;;;;;10390326;28;20286;-75
2022/08/20 05:12:55;;;;;;;3.50;3.20;;;;;;;;;;10415566;28;20282;-75
2022/08/20 05:17:59;;;;;;;5.00;3.57;;;;;;;;;;10400877;28;20233;-78
2022/08/20 05:23:00;;;;;;;4.10;3.70;;;;;;;;;;10399433;28;20282;-74
2022/08/20 05:28:11;;;;;;;4.67;3.63;;;;;;;;;;10394230;28;20248;-76
2022/08/20 05:33:16;;;;;;;4.03;3.60;;;;;;;;;;10407467;28;20217;-74
2022/08/20 05:38:19;;;;;;;4.77;3.63;;;;;;;;;;10405331;28;20255;-74
2022/08/20 05:43:21;;;;;;;5.27;3.77;;;;;;;;;;10397299;28;20569;-70
2022/08/20 05:48:22;;;;;;;4.00;3.60;;;;;;;;;;10398688;28;20303;-71
2022/08/20 05:53:24;;;;;;;3.40;3.10;;;;;;;;;;10398035;28;20216;-72
2022/08/20 05:58:29;;;;;;;3.87;3.17;;;;;;;;;;10406276;28;20229;-72
2022/08/20 06:08:50;;;;;;;2.87;2.60;;;;;;;;;;10403871;28;20718;-71
2022/08/20 06:13:51;;;;;;;2.97;2.20;;;;;;;;;;10397274;28;20216;-71
2022/08/20 06:18:52;;;;;;;5.03;1.90;;;;;;;;;;10405830;28;20620;-71
2022/08/20 06:23:53;;;;;;;2.30;1.97;;;;;;;;;;10392507;28;20232;-70
2022/08/20 06:28:54;;;;;;;2.23;1.90;;;;;;;;;;10386616;28;20282;-71
2022/08/20 06:33:56;;;;;;;2.93;2.20;;;;;;;;;;10401417;28;20224;-71
2022/08/20 06:38:57;;;;;;;7.47;2.70;;;;;;;;;;10399211;28;20254;-71
2022/08/20 06:43:59;;;;;;;4.23;3.47;;;;;;;;;;10397234;28;20225;-71
2022/08/20 06:49:00;;;;;;;5.47;3.63;;;;;;;;;;10410220;28;20233;-72
2022/08/20 06:54:01;;;;;;;4.73;4.33;;;;;;;;;;10397453;28;20217;-72
2022/08/20 06:59:02;;;;;;;9.03;6.30;;;;;;;;;;10395879;28;20238;-72
2022/08/20 07:04:04;;;;;;;7.93;7.23;;;;;;;;;;10395877;28;20216;-74
2022/08/20 07:09:05;;;;;;;9.13;8.33;;;;;;;;;;10396965;28;20720;-75
2022/08/20 07:14:06;;;;;;;9.67;8.70;;;;;;;;;;10409466;28;20707;-76
2022/08/20 07:19:07;;;;;;;10.03;9.23;;;;;;;;;;10396614;28;20256;-74
2022/08/20 07:24:08;;;;;;;11.23;9.90;;;;;;;;;;10396739;28;20228;-75
2022/08/20 07:29:09;;;;;;;11.63;10.63;;;;;;;;;;10396165;28;20335;-74
2022/08/20 07:34:11;;;;;;;10.97;9.97;;;;;;;;;;10393399;28;20329;-75
2022/08/20 07:39:12;;;;;;;10.93;9.83;;;;;;;;;;10403397;28;20219;-73
2022/08/20 07:44:13;;;;;;;10.17;9.27;;;;;;;;;;10399046;28;20711;-75
2022/08/20 07:49:14;;;;;;;10.33;9.33;;;;;;;;;;10395563;28;20715;-74
2022/08/20 07:54:18;;;;;;;11.57;10.47;;;;;;;;;;10402522;28;20646;-74
2022/08/20 07:59:19;;;;;;;11.10;10.10;;;;;;;;;;10389215;28;20597;-74
2022/08/20 08:04:23;;;;;;;9.47;8.30;;;;;;;;;;10403448;28;20292;-73
2022/08/20 08:09:24;;;;;;;11.47;10.43;;;;;;;;;;10393603;28;20597;-74
2022/08/20 08:14:27;;;;;;;10.50;9.40;;;;;;;;;;10385031;28;20223;-74
2022/08/20 08:19:33;;;;;;;11.70;10.70;;;;;;;;;;10406484;28;20233;-74
2022/08/20 08:24:34;;;;;;;9.07;8.17;;;;;;;;;;10397251;28;20232;-73
2022/08/20 08:29:38;;;;;;;9.27;8.57;;;;;;;;;;10409834;28;20221;-74
2022/08/20 08:34:39;;;;;;;8.67;8.00;;;;;;;;;;10400096;28;20213;-74
2022/08/20 08:39:41;;;;;;;7.03;6.43;;;;;;;;;;10406714;28;20691;-75
2022/08/20 08:44:42;;;;;;;7.60;7.00;;;;;;;;;;10397173;28;20213;-77
2022/08/20 08:49:43;;;;;;;6.97;6.47;;;;;;;;;;10404302;28;20404;-75
2022/08/20 08:54:55;;;;;;;8.23;7.43;;;;;;;;;;10539148;23;20245;-74
2022/08/20 09:00:01;;;;;;;5.17;4.67;;;;;;;;;;10411632;28;20300;-73
2022/08/20 09:05:04;;;;;;;3.70;3.50;;;;;;;;;;10400756;28;20231;-72
2022/08/20 09:10:05;;;;;;;3.37;3.07;;;;;;;;;;10378761;28;20681;-73
2022/08/20 09:15:07;;;;;;;4.43;3.57;;;;;;;;;;10407266;28;20346;-73
2022/08/20 09:20:09;;;;;;;2.30;2.20;;;;;;;;;;10404078;28;20191;-73
2022/08/20 09:25:10;;;;;;;2.73;2.53;;;;;;;;;;10401848;28;20214;-73
2022/08/20 09:30:12;;;;;;;2.10;2.00;;;;;;;;;;10412616;28;20556;-74
2022/08/20 09:35:13;;;;;;;2.80;2.30;;;;;;;;;;10399100;28;20189;-72
2022/08/20 09:40:14;;;;;;;2.70;2.47;;;;;;;;;;10396381;28;20277;-72
2022/08/20 09:45:15;;;;;;;2.50;2.00;;;;;;;;;;10399440;28;20263;-73
2022/08/20 09:50:16;;;;;;;2.80;2.60;;;;;;;;;;10373590;28;20217;-70
2022/08/20 09:55:17;;;;;;;2.20;2.00;;;;;;;;;;10404037;28;20643;-71
2022/08/20 10:00:18;;;;;;;2.03;1.80;;;;;;;;;;10382954;28;20199;-71
2022/08/20 10:05:19;;;;;;;2.40;1.73;;;;;;;;;;10399972;28;20284;-71
2022/08/20 10:10:20;;;;;;;1.40;1.30;;;;;;;;;;10402091;28;20215;-71
2022/08/20 10:15:21;;;;;;;1.70;1.60;;;;;;;;;;10403065;28;20264;-71
2022/08/20 10:20:23;;;;;;;1.53;1.43;;;;;;;;;;10373234;28;20197;-71
2022/08/20 10:25:24;;;;;;;1.27;1.17;;;;;;;;;;10403944;28;20270;-72
2022/08/20 10:30:25;;;;;;;1.03;1.03;;;;;;;;;;10403406;28;20237;-72
2022/08/20 10:35:26;;;;;;;1.37;1.27;;;;;;;;;;10411221;28;20236;-71
2022/08/20 10:40:27;;;;;;;1.50;1.40;;;;;;;;;;10396824;28;20233;-71
2022/08/20 10:45:28;;;;;;;1.40;1.30;;;;;;;;;;10380726;28;20232;-71
2022/08/20 10:50:29;;;;;;;1.40;1.30;;;;;;;;;;10396227;28;20232;-72
2022/08/20 10:55:30;;;;;;;2.43;0.90;;;;;;;;;;10396824;28;20773;-71
2022/08/20 11:00:31;;;;;;;1.27;1.27;;;;;;;;;;10396811;28;20228;-72
2022/08/20 11:05:32;;;;;;;1.03;0.93;;;;;;;;;;10374002;28;20243;-71
2022/08/20 11:10:34;;;;;;;0.67;0.57;;;;;;;;;;10384566;28;20589;-74
2022/08/20 11:15:37;;;;;;;0.70;0.60;;;;;;;;;;10383624;28;20228;-74
2022/08/20 11:20:38;;;;;;;0.60;0.60;;;;;;;;;;10397622;28;20277;-73
2022/08/20 11:25:41;;;;;;;1.17;0.80;;;;;;;;;;10404103;28;20329;-72
2022/08/20 11:30:43;;;;;;;0.97;0.70;;;;;;;;;;10393451;28;20348;-72
2022/08/20 11:35:47;;;;;;;0.67;0.67;;;;;;;;;;10395169;28;20249;-72
2022/08/20 11:40:48;;;;;;;0.43;0.43;;;;;;;;;;10387864;28;20225;-71
2022/08/20 11:45:50;;;;;;;0.50;0.50;;;;;;;;;;10380457;28;20248;-71
2022/08/20 11:50:51;;;;;;;0.40;0.40;;;;;;;;;;10394971;28;20612;-71
2022/08/20 11:55:52;;;;;;;0.67;0.67;;;;;;;;;;10401366;28;20231;-71
2022/08/20 12:00:53;;;;;;;1.33;0.60;;;;;;;;;;10399916;28;20236;-70
2022/08/20 12:05:56;;;;;;;0.37;0.37;;;;;;;;;;10391775;28;20327;-71
2022/08/20 12:10:59;;;;;;;0.60;0.40;;;;;;;;;;10407283;28;20287;-71
2022/08/20 12:16:00;;;;;;;0.47;0.40;;;;;;;;;;10410144;28;20660;-71
2022/08/20 12:21:01;;;;;;;0.50;0.50;;;;;;;;;;10397428;28;20211;-71
2022/08/20 12:26:02;;;;;;;1.60;0.50;;;;;;;;;;10414998;28;20229;-72
2022/08/20 12:31:03;;;;;;;0.50;0.37;;;;;;;;;;10390682;28;20211;-70
2022/08/20 12:36:04;;;;;;;0.40;0.40;;;;;;;;;;10401503;28;20254;-70
2022/08/20 12:41:05;;;;;;;0.70;0.43;;;;;;;;;;10406100;28;20220;-71
2022/08/20 12:46:09;;;;;;;1.27;0.70;;;;;;;;;;10400988;28;20239;-71
2022/08/20 12:51:10;;;;;;;1.90;0.70;;;;;;;;;;10400998;28;20773;-71
2022/08/20 12:56:11;;;;;;;0.40;0.40;;;;;;;;;;10406040;28;20322;-71
2022/08/20 13:01:14;;;;;;;0.47;0.40;;;;;;;;;;10401301;28;20301;-71
2022/08/20 13:06:15;;;;;;;0.30;0.30;;;;;;;;;;10399843;28;20596;-71
2022/08/20 13:11:16;;;;;;;0.77;0.47;;;;;;;;;;10398504;28;20225;-72
2022/08/20 13:16:17;;;;;;;0.50;0.50;;;;;;;;;;10374797;28;20220;-71
2022/08/20 13:21:18;;;;;;;1.20;0.90;;;;;;;;;;10396383;28;20222;-72
2022/08/20 13:26:19;;;;;;;0.40;0.40;;;;;;;;;;10399071;28;20224;-71
2022/08/20 13:31:20;;;;;;;1.07;0.60;;;;;;;;;;10405455;28;20237;-71
2022/08/20 13:36:21;;;;;;;2.00;0.60;;;;;;;;;;10392511;28;20675;-72
2022/08/20 13:41:22;;;;;;;1.30;1.20;;;;;;;;;;10403096;28;20265;-71
2022/08/20 13:46:23;;;;;;;1.30;0.90;;;;;;;;;;10392122;28;20279;-72
2022/08/20 13:51:33;;;;;;;0.70;0.70;;;;;;;;;;10403391;28;20258;-71
2022/08/20 13:56:34;;;;;;;3.47;1.30;;;;;;;;;;10404515;28;20306;-72
2022/08/20 14:01:38;;;;;;;0.90;0.80;;;;;;;;;;10398415;28;20278;-72
2022/08/20 14:06:39;;;;;;;1.07;0.90;;;;;;;;;;10376659;28;20730;-72
2022/08/20 14:11:40;;;;;;;1.50;1.20;;;;;;;;;;10404738;28;20322;-72
2022/08/20 14:16:41;;;;;;;2.27;1.70;;;;;;;;;;10377315;28;20232;-72
2022/08/20 14:21:42;;;;;;;1.87;1.57;;;;;;;;;;10378290;28;20377;-72
2022/08/20 14:26:43;;;;;;;2.00;1.90;;;;;;;;;;10397394;28;20657;-72
2022/08/20 14:31:44;;;;;;;2.10;1.87;;;;;;;;;;10393076;28;20231;-71
2022/08/20 14:36:45;;;;;;;3.13;2.07;;;;;;;;;;10394986;28;20653;-72
2022/08/20 14:41:46;;;;;;;2.20;1.53;;;;;;;;;;10396068;28;20214;-71
2022/08/20 14:46:50;;;;;;;2.37;2.10;;;;;;;;;;10400697;28;20232;-71
2022/08/20 14:51:51;;;;;;;1.83;1.70;;;;;;;;;;10395104;28;20253;-71
2022/08/20 14:56:52;;;;;;;2.27;2.03;;;;;;;;;;10384352;28;20286;-70
2022/08/20 15:01:53;;;;;;;3.40;2.10;;;;;;;;;;10394495;28;20255;-72
2022/08/20 15:06:55;;;;;;;2.93;2.30;;;;;;;;;;10396362;28;20251;-71
2022/08/20 15:11:56;;;;;;;3.47;2.60;;;;;;;;;;10388121;28;20282;-71
2022/08/20 15:16:57;;;;;;;2.47;2.00;;;;;;;;;;10384355;28;20230;-70
2022/08/20 15:21:58;;;;;;;2.40;2.20;;;;;;;;;;10371324;28;20224;-71
2022/08/20 15:27:12;;;;;;;2.73;2.10;;;;;;;;;;10382351;28;20241;-71
2022/08/20 15:32:14;;;;;;;3.07;2.60;;;;;;;;;;10411400;28;20223;-73
2022/08/20 15:37:17;;;;;;;5.90;2.73;;;;;;;;;;10392283;28;20223;-71
2022/08/20 15:42:19;;;;;;;3.10;2.37;;;;;;;;;;10402441;28;20219;-71
2022/08/20 15:47:25;;;;;;;2.83;2.47;;;;;;;;;;10392182;28;20239;-72
2022/08/20 15:52:30;;;;;;;3.10;2.80;;;;;;;;;;10401319;28;20679;-71
2022/08/20 15:57:49;;;;;;;6.20;2.83;;;;;;;;;;10407559;28;20318;-72
2022/08/20 16:02:53;;;;;;;3.20;2.93;;;;;;;;;;10401738;28;20560;-71
2022/08/20 16:08:16;;;;;;;4.00;2.50;;;;;;;;;;10410605;28;20289;-71
2022/08/20 16:13:26;;;;;;;3.00;2.50;;;;;;;;;;10401755;28;20343;-72
2022/08/20 16:18:31;;;;;;;3.43;2.30;;;;;;;;;;10373229;28;20265;-71
2022/08/20 16:23:34;;;;;;;2.60;1.80;;;;;;;;;;10402537;28;20228;-71
2022/08/20 16:28:41;;;;;;;2.63;1.87;;;;;;;;;;10388023;28;20240;-71
2022/08/20 16:33:45;;;;;;;3.77;1.80;;;;;;;;;;10400194;28;20227;-72
2022/08/20 16:38:51;;;;;;;1.80;1.60;;;;;;;;;;10395990;28;20253;-71
2022/08/20 16:44:00;;;;;;;1.87;1.77;;;;;;;;;;10388473;28;20228;-71
2022/08/20 16:49:13;;;;;;;4.40;2.20;;;;;;;;;;10392777;28;20775;-71
2022/08/20 16:54:21;;;;;;;2.93;1.90;;;;;;;;;;10402485;28;20267;-71
2022/08/20 16:59:22;;;;;;;1.77;1.67;;;;;;;;;;10399563;28;20227;-70
2022/08/20 17:04:24;;;;;;;2.33;1.53;;;;;;;;;;10405928;28;20234;-70
2022/08/20 17:09:42;;;;;;;4.20;1.70;;;;;;;;;;10392805;28;20231;-71
2022/08/20 17:14:48;;;;;;;3.90;1.83;;;;;;;;;;10392279;28;20241;-70
2022/08/20 17:19:54;;;;;;;2.50;2.30;;;;;;;;;;10410347;28;20224;-71
2022/08/20 17:24:55;;;;;;;2.77;2.00;;;;;;;;;;10395367;28;20227;-72
2022/08/20 17:30:04;;;;;;;2.57;2.37;;;;;;;;;;10404003;28;20296;-72
2022/08/20 17:35:05;;;;;;;3.17;2.30;;;;;;;;;;10392735;28;20760;-70
2022/08/20 17:40:14;;;;;;;3.53;2.37;;;;;;;;;;10399145;28;20556;-71
2022/08/20 17:45:23;;;;;;;4.37;3.13;;;;;;;;;;10393429;28;20209;-72
2022/08/20 17:50:30;;;;;;;5.67;2.70;;;;;;;;;;10402043;28;20185;-70
2022/08/20 17:55:33;;;;;;;5.20;2.97;;;;;;;;;;10389167;28;20259;-71
2022/08/20 18:00:34;;;;;;;4.67;2.30;;;;;;;;;;10395755;28;20298;-71
2022/08/20 18:05:37;;;;;;;3.33;2.40;;;;;;;;;;10404655;28;20315;-71
2022/08/20 18:10:42;;;;;;;2.47;2.27;;;;;;;;;;10398523;28;20259;-71
2022/08/20 18:15:54;;;;;;;4.43;2.20;;;;;;;;;;10393876;28;20278;-72
2022/08/20 18:21:10;;;;;;;3.27;2.40;;;;;;;;;;10398326;28;20320;-70
2022/08/20 18:26:18;;;;;;;2.97;2.50;;;;;;;;;;10376034;28;20224;-71
2022/08/20 18:31:26;;;;;;;3.07;2.50;;;;;;;;;;10389388;28;20307;-71
2022/08/20 18:36:29;;;;;;;3.30;2.63;;;;;;;;;;10405083;28;20224;-72
2022/08/20 18:41:56;;;;;;;5.23;2.57;;;;;;;;;;10378994;28;20234;-71
2022/08/20 18:46:59;;;;;;;3.03;2.20;;;;;;;;;;10383554;28;20704;-71
2022/08/20 18:52:11;;;;;;;3.60;2.53;;;;;;;;;;10379505;28;20224;-71
2022/08/20 18:57:25;;;;;;;5.03;3.00;;;;;;;;;;10403962;28;20337;-71
2022/08/20 19:02:34;;;;;;;5.93;2.37;;;;;;;;;;10379710;28;20804;-71
2022/08/20 19:07:36;;;;;;;4.70;2.37;;;;;;;;;;10386848;28;20238;-70
2022/08/20 19:12:37;;;;;;;3.53;2.57;;;;;;;;;;10398018;28;20217;-70
2022/08/20 19:17:51;;;;;;;3.80;2.67;;;;;;;;;;10387976;28;20845;-71
2022/08/20 19:22:53;;;;;;;2.77;2.57;;;;;;;;;;10375534;28;20219;-71
2022/08/20 19:27:56;;;;;;;3.73;3.17;;;;;;;;;;10403972;28;20243;-71
2022/08/20 19:32:57;;;;;;;4.90;3.73;;;;;;;;;;10393966;28;20271;-72
2022/08/20 19:38:00;;;;;;;5.33;3.07;;;;;;;;;;10405757;28;20255;-71
2022/08/20 19:43:02;;;;;;;4.83;2.93;;;;;;;;;;10397898;28;20215;-71
2022/08/20 19:48:15;;;;;;;5.23;3.20;;;;;;;;;;10395634;28;20219;-71
2022/08/20 19:53:30;;;;;;;4.17;3.20;;;;;;;;;;10376672;28;20351;-71
2022/08/20 19:58:32;;;;;;;3.87;3.10;;;;;;;;;;10387846;28;20221;-71
2022/08/20 20:03:36;;;;;;;7.20;5.00;;;;;;;;;;10398813;28;20278;-73
2022/08/20 20:08:42;;;;;;;5.97;3.47;;;;;;;;;;10396283;28;20244;-72
2022/08/20 20:13:44;;;;;;;5.67;3.60;;;;;;;;;;10398832;28;20245;-71
2022/08/20 20:18:45;;;;;;;4.87;3.13;;;;;;;;;;10399690;28;20282;-71
2022/08/20 20:23:55;;;;;;;5.40;3.27;;;;;;;;;;10396359;28;20304;-72
2022/08/20 20:29:02;;;;;;;6.63;3.47;;;;;;;;;;10410235;28;20717;-71
2022/08/20 20:34:13;;;;;;;8.03;4.20;;;;;;;;;;10407901;28;20217;-71
2022/08/20 20:39:29;;;;;;;3.97;3.53;;;;;;;;;;10393933;28;20271;-70
2022/08/20 20:44:34;;;;;;;5.40;3.43;;;;;;;;;;10401929;28;20240;-71
2022/08/20 20:49:49;;;;;;;4.57;3.40;;;;;;;;;;10392798;28;20240;-72
2022/08/20 20:54:53;;;;;;;5.27;3.53;;;;;;;;;;10388604;28;20707;-72
2022/08/20 20:59:57;;;;;;;3.80;3.30;;;;;;;;;;10405038;28;20219;-71
2022/08/20 21:04:58;;;;;;;6.60;3.63;;;;;;;;;;10397491;28;20252;-71
2022/08/20 21:09:59;;;;;;;6.27;3.57;;;;;;;;;;10399520;28;20219;-71
2022/08/20 21:15:00;;;;;;;4.43;3.17;;;;;;;;;;10385115;28;20702;-71
2022/08/20 21:20:02;;;;;;;6.70;3.47;;;;;;;;;;10403355;28;20299;-71
2022/08/20 21:25:04;;;;;;;5.43;3.80;;;;;;;;;;10368739;28;20221;-71
2022/08/20 21:30:05;;;;;;;5.20;3.90;;;;;;;;;;10407744;28;20216;-70
2022/08/20 21:35:06;;;;;;;4.30;3.80;;;;;;;;;;10405762;28;20189;-72
2022/08/20 21:40:08;;;;;;;5.03;3.73;;;;;;;;;;10400949;28;20255;-71
2022/08/20 21:45:10;;;;;;;3.90;3.40;;;;;;;;;;10372726;28;20200;-71
2022/08/20 21:50:14;;;;;;;5.50;3.67;;;;;;;;;;10383107;28;20265;-70
2022/08/20 21:55:18;;;;;;;7.77;4.10;;;;;;;;;;10380922;28;20209;-71
2022/08/20 22:00:39;;;;;;;5.00;3.93;;;;;;;;;;10394149;28;20191;-70
2022/08/20 22:05:40;;;;;;;8.77;4.47;;;;;;;;;;10376351;28;20237;-71
2022/08/20 22:10:41;;;;;;;4.43;3.47;;;;;;;;;;10372283;28;20215;-71
2022/08/20 22:15:42;;;;;;;6.47;3.80;;;;;;;;;;10405798;28;20212;-70
2022/08/20 22:20:43;;;;;;;6.93;3.90;;;;;;;;;;10384241;28;20347;-72
2022/08/20 22:25:44;;;;;;;5.57;3.80;;;;;;;;;;10385762;28;20317;-70
2022/08/20 22:30:45;;;;;;;5.77;3.80;;;;;;;;;;10387587;28;20267;-71
2022/08/20 22:35:48;;;;;;;7.40;4.40;;;;;;;;;;10405036;28;20776;-71
2022/08/20 22:40:50;;;;;;;5.77;4.10;;;;;;;;;;10372975;28;20234;-71
2022/08/20 22:45:53;;;;;;;6.03;4.10;;;;;;;;;;10402583;28;20229;-71
2022/08/20 22:50:54;;;;;;;8.03;4.57;;;;;;;;;;10391524;28;20304;-72
2022/08/20 22:55:55;;;;;;;6.20;4.23;;;;;;;;;;10402381;28;20678;-72
2022/08/20 23:00:56;;;;;;;7.33;4.27;;;;;;;;;;10396061;28;20227;-71
2022/08/20 23:05:57;;;;;;;7.27;4.40;;;;;;;;;;10396947;28;20232;-71
2022/08/20 23:10:58;;;;;;;6.40;4.17;;;;;;;;;;10376849;28;20327;-71
2022/08/20 23:15:59;;;;;;;6.20;4.30;;;;;;;;;;10398452;28;20314;-70
2022/08/20 23:21:00;;;;;;;6.53;4.13;;;;;;;;;;10403338;28;20228;-70
2022/08/20 23:26:01;;;;;;;8.23;4.47;;;;;;;;;;10397443;28;20227;-71
2022/08/20 23:31:02;;;;;;;6.17;4.30;;;;;;;;;;10394711;28;20219;-71
2022/08/20 23:36:04;;;;;;;7.30;4.63;;;;;;;;;;10410055;28;20705;-71
2022/08/20 23:41:05;;;;;;;5.70;4.37;;;;;;;;;;10371196;28;20760;-71
2022/08/20 23:46:07;;;;;;;6.27;4.30;;;;;;;;;;10400444;28;20225;-71
2022/08/20 23:51:08;;;;;;;7.03;4.63;;;;;;;;;;10383787;28;20715;-72
2022/08/20 23:56:09;;;;;;;5.73;4.80;;;;;;;;;;10383839;28;20710;-71
